Capitol Logistics 528




WSSS
Changi International Airport
Singapore, SG
RKSI
Incheon International Airport
Seoul, KR

Route Details

Aircraft Information
Group: Trans-Pacific Ops
Types: B744,B763,MD11
Route Data
Demand: V
Distance: 2501nm
Duration: 6h 00m
Recm'd Route: VMR5E VMR M771 DULOP ENVAR M750 DADON L1 SALMI B576 CJU Y722 MAKSA MAKS2M
Origin Wx: WSSS 272200Z VRB02KT 9999 FEW016 FEW018CB BKN280 27/25 Q1008 NOSIG
Dest. Wx: RKSI 272200Z 15007KT 3500 BR FEW007 SCT180 17/15 Q1004 NOSIG
Notes:

Financial History
Total Freight: 350,644lbs
Average Load: 116,881lbs/flt
Fuel Used: 317,855lbs
Avg. Fuel Used: 105,952lbs/flt
Fuel Expense: $272,600
Avg. Fuel Expense: $90,867
Avg. Fuel Cost: $0.81/lbs
Total Gross Income: $1,210,759
Pilot Pay: $727
Total Expenses: $139,841
Total Revenue: $795,288
Average Revenue: $403,586.20